createdAt,value
2023-05-22T00:01:06.658Z,16.79
2023-05-22T00:03:33.729Z,16.80
2023-05-22T00:06:00.356Z,16.79
2023-05-22T00:08:29.543Z,16.75
2023-05-22T00:10:56.808Z,16.69
2023-05-22T00:13:23.386Z,16.65
2023-05-22T00:15:50.106Z,16.72
2023-05-22T00:18:16.820Z,16.68
2023-05-22T00:20:46.352Z,16.55
2023-05-22T00:23:15.597Z,16.55
2023-05-22T00:25:42.401Z,16.47
2023-05-22T00:28:08.963Z,16.43
2023-05-22T00:30:37.158Z,16.45
2023-05-22T00:33:03.977Z,16.46
2023-05-22T00:35:31.013Z,16.51
2023-05-22T00:37:57.633Z,16.49
2023-05-22T00:40:24.204Z,16.47
2023-05-22T00:42:50.679Z,16.54
2023-05-22T00:45:17.363Z,16.56
2023-05-22T00:47:43.971Z,16.53
2023-05-22T00:50:11.751Z,16.51
2023-05-22T00:52:41.232Z,16.54
2023-05-22T00:55:09.055Z,16.54
2023-05-22T00:57:38.233Z,16.53
2023-05-22T01:00:06.252Z,16.50
2023-05-22T01:02:33.212Z,16.43
2023-05-22T01:05:00.017Z,16.46
2023-05-22T01:07:26.546Z,16.47
2023-05-22T01:09:53.038Z,16.43
2023-05-22T01:12:43.231Z,16.37
2023-05-22T01:15:41.227Z,16.29
2023-05-22T01:18:19.684Z,16.31
2023-05-22T01:21:06.323Z,16.40
2023-05-22T01:24:00.880Z,16.41
2023-05-22T01:26:36.222Z,16.49
2023-05-22T01:29:14.377Z,16.50
2023-05-22T01:31:43.015Z,16.52
2023-05-22T01:34:11.676Z,16.45
2023-05-22T01:36:39.066Z,16.40
2023-05-22T01:39:06.764Z,16.46
2023-05-22T01:41:34.727Z,16.56
2023-05-22T01:44:02.258Z,16.58
2023-05-22T01:46:30.223Z,16.55
2023-05-22T01:48:57.524Z,16.51
2023-05-22T01:51:46.848Z,16.52
2023-05-22T01:54:44.028Z,16.54
2023-05-22T01:57:22.135Z,16.57
2023-05-22T01:59:59.551Z,16.62
2023-05-22T02:02:27.870Z,16.63
2023-05-22T02:05:00.681Z,16.58
2023-05-22T02:07:28.825Z,16.55
2023-05-22T02:09:56.831Z,16.54
2023-05-22T02:12:24.529Z,16.55
2023-05-22T02:14:52.245Z,16.54
2023-05-22T02:17:18.918Z,16.52
2023-05-22T02:19:45.521Z,16.52
2023-05-22T02:22:15.197Z,16.46
2023-05-22T02:24:50.941Z,16.40
2023-05-22T02:27:17.474Z,16.45
2023-05-22T02:29:43.994Z,16.38
2023-05-22T02:32:10.730Z,16.30
2023-05-22T02:34:37.982Z,16.29
2023-05-22T02:37:04.841Z,16.31
2023-05-22T02:39:31.359Z,16.36
2023-05-22T02:41:57.870Z,16.32
2023-05-22T02:44:24.366Z,16.27
2023-05-22T02:46:50.938Z,16.18
2023-05-22T02:49:17.467Z,16.11
2023-05-22T02:51:47.520Z,16.10
2023-05-22T02:54:15.810Z,16.07
2023-05-22T02:56:43.267Z,16.06
2023-05-22T02:59:10.071Z,16.03
2023-05-22T03:01:36.780Z,15.96
2023-05-22T03:04:03.381Z,15.93
2023-05-22T03:06:30.542Z,15.93
2023-05-22T03:08:57.067Z,15.99
2023-05-22T03:11:23.630Z,15.99
2023-05-22T03:13:50.132Z,16.05
2023-05-22T03:16:16.768Z,16.09
2023-05-22T03:18:43.299Z,16.04
2023-05-22T03:21:10.008Z,16.04
2023-05-22T03:23:36.501Z,16.07
2023-05-22T03:26:03.060Z,16.01
2023-05-22T03:28:29.578Z,15.95
2023-05-22T03:30:56.099Z,15.99
2023-05-22T03:33:22.709Z,16.04
2023-05-22T03:35:50.102Z,16.04
2023-05-22T03:38:16.603Z,16.01
2023-05-22T03:40:43.067Z,15.98
2023-05-22T03:43:09.547Z,15.93
2023-05-22T03:45:36.130Z,15.84
2023-05-22T03:48:02.802Z,15.84
2023-05-22T03:50:29.354Z,15.78
2023-05-22T03:52:55.882Z,15.78
2023-05-22T03:55:22.364Z,15.81
2023-05-22T03:57:48.828Z,15.79
2023-05-22T04:00:17.098Z,15.73
2023-05-22T04:02:44.993Z,15.65
2023-05-22T04:05:12.038Z,15.61
2023-05-22T04:07:38.646Z,15.53
2023-05-22T04:10:06.383Z,15.52
2023-05-22T04:12:33.007Z,15.51
2023-05-22T04:14:59.659Z,15.55
2023-05-22T04:17:32.192Z,15.62
2023-05-22T04:19:59.756Z,15.67
2023-05-22T04:22:30.898Z,15.64
2023-05-22T04:24:57.619Z,15.66
2023-05-22T04:27:24.867Z,15.66
2023-05-22T04:29:51.369Z,15.74
2023-05-22T04:32:21.671Z,15.70
2023-05-22T04:34:51.048Z,15.71
2023-05-22T04:37:20.694Z,15.75
2023-05-22T04:39:47.404Z,15.76
2023-05-22T04:42:14.462Z,15.78
2023-05-22T04:44:41.898Z,15.74
2023-05-22T04:47:14.314Z,15.62
2023-05-22T04:49:42.445Z,15.65
2023-05-22T04:52:11.571Z,15.56
2023-05-22T04:54:43.309Z,15.52
2023-05-22T04:57:09.996Z,15.47
2023-05-22T04:59:40.176Z,15.45
2023-05-22T05:02:07.124Z,15.41
2023-05-22T05:04:33.964Z,15.47
2023-05-22T05:07:00.561Z,15.48
2023-05-22T05:09:27.070Z,15.55
2023-05-22T05:11:55.003Z,15.62
2023-05-22T05:14:21.578Z,15.64
2023-05-22T05:16:48.143Z,15.71
2023-05-22T05:19:15.573Z,15.79
2023-05-22T05:21:42.176Z,15.72
2023-05-22T05:24:08.785Z,15.64
2023-05-22T05:26:35.340Z,15.69
2023-05-22T05:29:01.859Z,15.69
2023-05-22T05:31:28.718Z,15.56
2023-05-22T05:33:58.152Z,15.51
2023-05-22T05:36:25.186Z,15.67
2023-05-22T05:38:51.759Z,15.66
2023-05-22T05:41:19.134Z,15.54
2023-05-22T05:43:45.826Z,15.59
2023-05-22T05:46:13.189Z,15.79
2023-05-22T05:48:39.844Z,15.92
2023-05-22T05:51:06.715Z,15.99
2023-05-22T05:53:33.250Z,16.04
2023-05-22T05:55:59.841Z,16.12
2023-05-22T05:58:26.328Z,16.20
2023-05-22T06:00:52.902Z,16.22
2023-05-22T06:03:19.523Z,16.25
2023-05-22T06:05:46.231Z,16.29
2023-05-22T06:08:13.614Z,16.27
2023-05-22T06:10:40.422Z,16.28
2023-05-22T06:13:07.264Z,16.37
2023-05-22T06:15:34.319Z,16.45
2023-05-22T06:18:02.463Z,16.53
2023-05-22T06:20:29.118Z,16.67
2023-05-22T06:22:56.048Z,16.80
2023-05-22T06:25:23.777Z,16.89
2023-05-22T06:27:50.292Z,17.00
2023-05-22T06:30:31.993Z,17.13
2023-05-22T06:33:06.140Z,17.22
2023-05-22T06:35:32.696Z,17.30
2023-05-22T06:37:59.323Z,17.32
2023-05-22T06:40:25.948Z,17.37
2023-05-22T06:42:52.997Z,17.45
2023-05-22T06:45:20.041Z,17.54
2023-05-22T06:47:46.852Z,17.60
2023-05-22T06:50:13.428Z,17.66
2023-05-22T06:52:39.926Z,17.76
2023-05-22T06:55:07.379Z,17.78
2023-05-22T06:57:34.665Z,17.76
2023-05-22T07:00:01.293Z,17.82
2023-05-22T07:02:27.867Z,17.90
2023-05-22T07:04:54.490Z,17.94
2023-05-22T07:07:21.233Z,18.07
2023-05-22T07:09:47.901Z,18.14
2023-05-22T07:12:14.586Z,18.17
2023-05-22T07:14:41.133Z,18.28
2023-05-22T07:17:08.001Z,18.38
2023-05-22T07:19:35.756Z,18.49
2023-05-22T07:22:02.393Z,18.56
2023-05-22T07:24:29.053Z,18.72
2023-05-22T07:26:55.655Z,18.71
2023-05-22T07:29:23.183Z,18.79
2023-05-22T07:31:50.149Z,18.89
2023-05-22T07:34:16.804Z,18.93
2023-05-22T07:36:43.393Z,18.99
2023-05-22T07:39:09.905Z,19.15
2023-05-22T07:41:36.717Z,19.14
2023-05-22T07:44:03.403Z,19.22
2023-05-22T07:46:29.996Z,19.25
2023-05-22T07:48:56.827Z,19.37
2023-05-22T07:51:23.336Z,19.49
2023-05-22T07:53:49.852Z,19.58
2023-05-22T07:56:17.612Z,19.64
2023-05-22T07:58:44.358Z,19.70
2023-05-22T08:01:11.145Z,19.72
2023-05-22T08:03:37.907Z,19.76
2023-05-22T08:06:04.824Z,19.85
2023-05-22T08:08:32.183Z,20.00
2023-05-22T08:13:28.195Z,20.16
2023-05-22T08:16:00.149Z,20.19
2023-05-22T08:18:29.168Z,20.24
2023-05-22T08:20:56.257Z,20.28
2023-05-22T08:23:22.994Z,20.41
2023-05-22T08:25:50.290Z,20.54
2023-05-22T08:28:16.856Z,20.58
2023-05-22T08:30:43.462Z,20.55
2023-05-22T08:33:10.074Z,20.63
2023-05-22T08:35:36.760Z,20.77
2023-05-22T08:38:03.318Z,20.87
2023-05-22T08:40:36.771Z,21.07
2023-05-22T08:43:06.156Z,21.05
2023-05-22T08:45:36.974Z,20.88
2023-05-22T08:48:05.912Z,21.03
2023-05-22T08:50:34.702Z,21.04
2023-05-22T08:53:04.770Z,20.91
2023-05-22T08:55:31.402Z,20.81
2023-05-22T08:57:59.561Z,20.78
2023-05-22T09:00:26.184Z,20.84
2023-05-22T09:02:53.479Z,21.02
2023-05-22T09:05:20.197Z,21.11
2023-05-22T09:07:48.817Z,21.42
2023-05-22T09:10:15.390Z,21.70
2023-05-22T09:13:00.822Z,22.01
2023-05-22T09:15:30.554Z,22.28
2023-05-22T09:17:57.189Z,22.46
2023-05-22T09:20:23.827Z,22.47
2023-05-22T09:22:50.380Z,22.54
2023-05-22T09:25:21.337Z,22.74
2023-05-22T09:27:48.833Z,22.81
2023-05-22T09:30:19.075Z,22.71
2023-05-22T09:32:48.375Z,22.85
2023-05-22T09:35:15.241Z,22.93
2023-05-22T09:37:42.059Z,22.98
2023-05-22T09:40:12.061Z,22.79
2023-05-22T09:42:38.590Z,22.73
2023-05-22T09:45:07.159Z,22.63
2023-05-22T09:47:34.889Z,22.99
2023-05-22T09:50:04.559Z,23.36
2023-05-22T09:52:35.753Z,23.54
2023-05-22T09:55:04.780Z,23.47
2023-05-22T09:57:42.856Z,23.26
2023-05-22T10:00:13.331Z,23.12
2023-05-22T10:02:44.562Z,23.06
2023-05-22T10:05:12.145Z,23.31
2023-05-22T10:08:04.881Z,23.56
2023-05-22T10:10:33.065Z,23.66
2023-05-22T10:13:06.501Z,23.81
2023-05-22T10:15:33.139Z,23.94
2023-05-22T10:18:00.717Z,23.97
2023-05-22T10:20:29.714Z,24.14
2023-05-22T10:22:56.941Z,24.10
2023-05-22T10:25:23.636Z,24.18
2023-05-22T10:27:53.619Z,24.23
2023-05-22T10:30:40.862Z,23.92
2023-05-22T10:33:19.040Z,23.95
2023-05-22T10:36:08.675Z,23.83
2023-05-22T10:39:04.989Z,23.65
2023-05-22T10:41:31.938Z,23.76
2023-05-22T10:43:58.536Z,23.89
2023-05-22T10:46:25.552Z,23.87
2023-05-22T10:48:55.082Z,23.79
2023-05-22T10:51:23.116Z,23.79
2023-05-22T10:53:57.936Z,23.79
2023-05-22T10:56:32.146Z,23.81
2023-05-22T10:59:05.321Z,23.90
2023-05-22T11:01:37.487Z,23.91
2023-05-22T11:04:04.113Z,23.94
2023-05-22T11:06:34.052Z,23.99
2023-05-22T11:09:16.309Z,24.13
2023-05-22T11:11:42.877Z,24.25
2023-05-22T11:14:11.887Z,24.25
2023-05-22T11:16:39.788Z,23.94
2023-05-22T11:19:22.145Z,23.70
2023-05-22T11:21:49.656Z,23.49
2023-05-22T11:24:18.091Z,23.41
2023-05-22T11:26:52.484Z,23.41
2023-05-22T11:29:19.029Z,23.46
2023-05-22T11:31:46.348Z,23.46
2023-05-22T11:34:13.026Z,23.45
2023-05-22T11:36:40.316Z,23.43
2023-05-22T11:39:07.261Z,23.32
2023-05-22T11:41:34.346Z,23.49
2023-05-22T11:44:01.603Z,23.66
2023-05-22T11:46:30.334Z,23.79
2023-05-22T11:48:57.077Z,24.19
2023-05-22T11:51:23.740Z,24.52
2023-05-22T11:53:50.387Z,24.68
2023-05-22T11:56:21.568Z,24.76
2023-05-22T11:58:51.882Z,24.89
2023-05-22T12:01:18.469Z,24.54
2023-05-22T12:03:45.108Z,24.21
2023-05-22T12:06:11.991Z,24.45
2023-05-22T12:08:39.292Z,24.58
2023-05-22T12:11:07.122Z,24.46
2023-05-22T12:13:33.635Z,24.31
2023-05-22T12:16:00.980Z,24.19
2023-05-22T12:18:35.374Z,24.64
2023-05-22T12:21:01.948Z,25.19
2023-05-22T12:23:30.058Z,25.51
2023-05-22T12:26:09.013Z,25.76
2023-05-22T12:28:35.640Z,25.87
2023-05-22T12:31:02.139Z,25.71
2023-05-22T12:33:29.936Z,25.25
2023-05-22T12:35:58.596Z,24.98
2023-05-22T12:38:31.701Z,25.00
2023-05-22T12:41:00.199Z,25.57
2023-05-22T12:43:27.246Z,25.95
2023-05-22T12:45:54.100Z,26.34
2023-05-22T12:48:20.690Z,26.44
2023-05-22T12:50:47.341Z,26.57
2023-05-22T12:53:14.000Z,26.23
2023-05-22T12:55:40.980Z,26.12
2023-05-22T12:58:07.648Z,26.50
2023-05-22T13:00:34.744Z,26.36
2023-05-22T13:03:01.520Z,26.12
2023-05-22T13:05:28.181Z,25.77
2023-05-22T13:07:54.683Z,25.45
2023-05-22T13:10:21.262Z,25.10
2023-05-22T13:12:51.027Z,24.75
2023-05-22T13:15:20.713Z,24.50
2023-05-22T13:17:47.296Z,24.42
2023-05-22T13:20:13.972Z,24.42
2023-05-22T13:22:44.640Z,24.41
2023-05-22T13:25:13.297Z,24.36
2023-05-22T13:27:39.843Z,24.27
2023-05-22T13:30:06.973Z,24.17
2023-05-22T13:32:34.173Z,24.16
2023-05-22T13:35:00.797Z,24.08
2023-05-22T13:37:27.426Z,24.07
2023-05-22T13:39:54.062Z,23.98
2023-05-22T13:42:20.771Z,23.83
2023-05-22T13:44:47.271Z,23.63
2023-05-22T13:47:13.982Z,23.53
2023-05-22T13:49:43.827Z,23.53
2023-05-22T13:52:10.458Z,23.52
2023-05-22T13:54:37.058Z,23.44
2023-05-22T13:57:03.721Z,23.41
2023-05-22T13:59:30.330Z,23.32
2023-05-22T14:01:56.951Z,23.24
2023-05-22T14:04:23.762Z,23.28
2023-05-22T14:06:50.707Z,23.31
2023-05-22T14:09:17.868Z,23.28
2023-05-22T14:11:44.569Z,23.29
2023-05-22T14:14:11.420Z,23.29
2023-05-22T14:16:38.366Z,23.30
2023-05-22T14:19:05.090Z,23.41
2023-05-22T14:21:31.649Z,23.36
2023-05-22T14:23:58.226Z,23.33
2023-05-22T14:26:24.792Z,23.36
2023-05-22T14:28:51.448Z,23.35
2023-05-22T14:31:17.968Z,23.44
2023-05-22T14:33:44.474Z,23.77
2023-05-22T14:36:11.027Z,23.91
2023-05-22T14:38:37.950Z,23.98
2023-05-22T14:41:04.500Z,23.85
2023-05-22T14:43:31.218Z,23.92
2023-05-22T14:45:59.081Z,23.94
2023-05-22T14:48:26.467Z,23.71
2023-05-22T14:50:53.784Z,23.66
2023-05-22T14:53:20.808Z,23.68
2023-05-22T14:55:47.596Z,23.71
2023-05-22T14:58:14.695Z,23.54
2023-05-22T15:00:42.740Z,23.51
2023-05-22T15:03:09.414Z,23.68
2023-05-22T15:05:36.060Z,23.68
2023-05-22T15:08:02.678Z,23.59
2023-05-22T15:10:29.222Z,23.52
2023-05-22T15:12:55.776Z,23.53
2023-05-22T15:15:22.464Z,23.45
2023-05-22T15:17:49.133Z,23.45
2023-05-22T15:20:15.785Z,23.41
2023-05-22T15:22:42.344Z,23.33
2023-05-22T15:25:15.282Z,23.32
2023-05-22T15:27:42.734Z,23.25
2023-05-22T15:30:10.006Z,23.28
2023-05-22T15:32:37.606Z,23.16
2023-05-22T15:37:33.723Z,23.18
2023-05-22T15:40:01.828Z,23.11
2023-05-22T15:42:28.822Z,23.02
2023-05-22T15:44:55.528Z,23.01
2023-05-22T15:47:22.251Z,23.09
2023-05-22T15:49:48.783Z,23.10
2023-05-22T15:52:15.641Z,23.07
2023-05-22T15:54:42.230Z,23.27
2023-05-22T15:57:08.740Z,23.27
2023-05-22T15:59:35.262Z,23.00
2023-05-22T16:02:01.869Z,22.92
2023-05-22T16:04:28.407Z,22.89
2023-05-22T16:06:55.005Z,22.98
2023-05-22T16:09:21.546Z,22.99
2023-05-22T16:11:48.130Z,22.92
2023-05-22T16:14:14.678Z,22.76
2023-05-22T16:16:41.343Z,22.67
2023-05-22T16:19:08.079Z,22.62
2023-05-22T16:21:34.616Z,22.56
2023-05-22T16:24:01.216Z,22.58
2023-05-22T16:26:27.740Z,22.60
2023-05-22T16:28:54.320Z,22.60
2023-05-22T16:31:20.910Z,22.85
2023-05-22T16:33:47.548Z,23.45
2023-05-22T16:36:14.108Z,24.15
2023-05-22T16:38:40.638Z,24.95
2023-05-22T16:41:07.136Z,25.17
2023-05-22T16:43:33.651Z,24.47
2023-05-22T16:46:00.188Z,24.26
2023-05-22T16:48:26.828Z,24.02
2023-05-22T16:50:53.544Z,24.02
2023-05-22T16:53:20.092Z,24.14
2023-05-22T16:55:46.691Z,23.77
2023-05-22T16:58:14.008Z,23.46
2023-05-22T17:00:41.284Z,23.15
2023-05-22T17:03:08.497Z,22.81
2023-05-22T17:05:36.532Z,22.68
2023-05-22T17:08:03.320Z,22.61
2023-05-22T17:10:29.875Z,22.47
2023-05-22T17:12:56.577Z,22.46
2023-05-22T17:15:23.498Z,22.58
2023-05-22T17:17:50.687Z,22.63
2023-05-22T17:20:17.413Z,22.53
2023-05-22T17:22:43.978Z,22.52
2023-05-22T17:25:10.835Z,22.36
2023-05-22T17:27:37.327Z,22.29
2023-05-22T17:30:05.582Z,22.23
2023-05-22T17:32:32.375Z,22.21
2023-05-22T17:34:59.348Z,22.17
2023-05-22T17:37:25.888Z,21.90
2023-05-22T17:39:52.370Z,21.77
2023-05-22T17:42:18.962Z,21.65
2023-05-22T17:44:45.795Z,21.62
2023-05-22T17:47:13.406Z,21.53
2023-05-22T17:49:40.173Z,21.44
2023-05-22T17:52:08.571Z,21.41
2023-05-22T17:54:35.901Z,21.46
2023-05-22T17:57:04.102Z,21.37
2023-05-22T17:59:31.924Z,21.21
2023-05-22T18:01:58.550Z,21.08
2023-05-22T18:04:25.286Z,21.10
2023-05-22T18:06:52.209Z,21.09
2023-05-22T18:09:18.790Z,20.93
2023-05-22T18:11:45.346Z,20.85
2023-05-22T18:14:12.040Z,20.97
2023-05-22T18:16:38.646Z,20.85
2023-05-22T18:19:05.236Z,20.72
2023-05-22T18:21:32.254Z,20.65
2023-05-22T18:23:59.028Z,20.71
2023-05-22T18:26:26.754Z,20.73
2023-05-22T18:28:53.334Z,20.74
2023-05-22T18:31:20.128Z,20.61
2023-05-22T18:33:46.800Z,20.55
2023-05-22T18:36:13.351Z,20.58
2023-05-22T18:38:39.995Z,20.50
2023-05-22T18:41:06.764Z,20.48
2023-05-22T18:43:33.754Z,20.31
2023-05-22T18:46:00.317Z,20.31
2023-05-22T18:48:28.154Z,20.26
2023-05-22T18:50:57.292Z,20.12
2023-05-22T18:53:25.355Z,20.02
2023-05-22T18:55:53.725Z,20.01
2023-05-22T18:58:20.576Z,19.99
2023-05-22T19:00:47.232Z,19.94
2023-05-22T19:03:13.982Z,19.98
2023-05-22T19:05:40.728Z,19.87
2023-05-22T19:08:07.314Z,19.91
2023-05-22T19:10:34.032Z,19.90
2023-05-22T19:13:00.582Z,19.85
2023-05-22T19:15:27.173Z,19.83
2023-05-22T19:17:53.693Z,19.84
2023-05-22T19:20:20.475Z,19.80
2023-05-22T19:22:47.077Z,19.76
2023-05-22T19:25:13.723Z,19.72
2023-05-22T19:27:40.401Z,19.70
2023-05-22T19:30:07.431Z,19.62
2023-05-22T19:32:34.102Z,19.59
2023-05-22T19:35:00.621Z,19.53
2023-05-22T19:37:27.180Z,19.42
2023-05-22T19:39:54.292Z,19.33
2023-05-22T19:42:20.836Z,19.23
2023-05-22T19:44:47.419Z,19.23
2023-05-22T19:47:13.983Z,19.12
2023-05-22T19:49:40.505Z,19.16
2023-05-22T19:52:07.065Z,19.14
2023-05-22T19:54:35.763Z,19.11
2023-05-22T19:57:02.974Z,18.97
2023-05-22T19:59:29.511Z,18.92
2023-05-22T20:01:56.187Z,18.91
2023-05-22T20:04:23.198Z,18.77
2023-05-22T20:06:49.785Z,18.67
2023-05-22T20:09:16.740Z,18.73
2023-05-22T20:11:43.297Z,18.69
2023-05-22T20:14:09.864Z,18.64
2023-05-22T20:16:36.512Z,18.57
2023-05-22T20:19:04.103Z,18.43
2023-05-22T20:21:31.054Z,18.49
2023-05-22T20:23:57.766Z,18.42
2023-05-22T20:26:24.323Z,18.32
2023-05-22T20:28:50.928Z,18.33
2023-05-22T20:31:17.872Z,18.20
2023-05-22T20:33:44.460Z,18.26
2023-05-22T20:36:12.012Z,18.36
2023-05-22T20:38:38.518Z,18.30
2023-05-22T20:41:08.663Z,18.22
2023-05-22T20:43:36.230Z,18.11
2023-05-22T20:46:03.115Z,18.13
2023-05-22T20:48:29.717Z,18.15
2023-05-22T20:50:56.463Z,17.96
2023-05-22T20:53:24.458Z,17.82
2023-05-22T20:55:53.180Z,17.89
2023-05-22T20:58:19.982Z,17.88
2023-05-22T21:00:49.333Z,17.85
2023-05-22T21:03:16.980Z,17.77
2023-05-22T21:05:43.495Z,17.79
2023-05-22T21:08:10.054Z,17.72
2023-05-22T21:10:36.545Z,17.64
2023-05-22T21:13:03.075Z,17.60
2023-05-22T21:15:29.542Z,17.44
2023-05-22T21:17:56.097Z,17.42
2023-05-22T21:20:22.651Z,17.25
2023-05-22T21:22:49.210Z,17.11
2023-05-22T21:25:15.787Z,17.13
2023-05-22T21:27:42.357Z,17.10
2023-05-22T21:30:11.970Z,16.96
2023-05-22T21:32:38.680Z,16.86
2023-05-22T21:35:06.011Z,16.80
2023-05-22T21:37:32.559Z,16.85
2023-05-22T21:39:59.087Z,16.72
2023-05-22T21:42:26.209Z,16.68
2023-05-22T21:44:52.901Z,16.51
2023-05-22T21:47:19.518Z,16.46
2023-05-22T21:49:46.031Z,16.39
2023-05-22T21:52:12.811Z,16.37
2023-05-22T21:54:39.601Z,16.36
2023-05-22T21:57:06.369Z,16.38
2023-05-22T21:59:32.940Z,16.36
2023-05-22T22:01:59.573Z,16.36
2023-05-22T22:04:26.240Z,16.38
2023-05-22T22:06:54.033Z,16.37
2023-05-22T22:09:20.527Z,16.29
2023-05-22T22:11:48.620Z,16.25
2023-05-22T22:14:15.188Z,16.24
2023-05-22T22:16:44.398Z,16.18
2023-05-22T22:19:11.522Z,16.10
2023-05-22T22:21:38.402Z,16.22
2023-05-22T22:24:05.069Z,16.15
2023-05-22T22:26:32.316Z,16.20
2023-05-22T22:28:58.947Z,16.14
2023-05-22T22:31:26.282Z,16.09
2023-05-22T22:33:52.945Z,16.02
2023-05-22T22:36:19.452Z,16.02
2023-05-22T22:38:46.120Z,16.01
2023-05-22T22:41:12.666Z,15.99
2023-05-22T22:43:39.163Z,15.96
2023-05-22T22:46:05.844Z,16.00
2023-05-22T22:48:32.369Z,16.07
2023-05-22T22:50:58.902Z,16.10
2023-05-22T22:53:25.519Z,15.97
2023-05-22T22:55:59.277Z,15.92
2023-05-22T22:58:25.925Z,15.93
2023-05-22T23:00:52.889Z,15.92
2023-05-22T23:03:19.488Z,15.90
2023-05-22T23:05:46.543Z,15.93
2023-05-22T23:08:13.254Z,15.90
2023-05-22T23:10:39.759Z,15.83
2023-05-22T23:13:06.515Z,15.77
2023-05-22T23:15:33.825Z,15.78
2023-05-22T23:18:00.452Z,15.84
2023-05-22T23:20:26.970Z,15.79
2023-05-22T23:22:53.533Z,15.67
2023-05-22T23:25:20.123Z,15.59
2023-05-22T23:27:46.668Z,15.58
2023-05-22T23:30:13.245Z,15.56
2023-05-22T23:32:39.838Z,15.66
2023-05-22T23:35:06.566Z,15.63
2023-05-22T23:37:33.065Z,15.55
2023-05-22T23:39:59.574Z,15.52
2023-05-22T23:42:26.119Z,15.51
2023-05-22T23:44:52.743Z,15.45
2023-05-22T23:47:19.244Z,15.42
2023-05-22T23:49:45.716Z,15.42
2023-05-22T23:52:13.112Z,15.49
2023-05-22T23:54:39.731Z,15.41
2023-05-22T23:57:06.267Z,15.40
2023-05-22T23:59:32.765Z,15.37
